Time;durP1;ratioP1;P1;durP2;ratioP2;P2;SDS_P1;SDS_P2;PMS_P1;PMS_P2;Temp;Humidity;BMP_temperature;BMP_pressure;BME280_temperature;BME280_humidity;BME280_pressure;Samples;Min_cycle;Max_cycle;Signal;HPM_P1;HPM_P2
2023/02/13 00:02:02;;;;;;;;;;;;;;;1.21;100.00;98411.53;5062588;28;20028;-67
2023/02/13 00:04:27;;;;;;;;;;;;;;;1.26;100.00;98406.97;5060911;28;19920;-67
2023/02/13 00:06:53;;;;;;;;;;;;;;;1.13;100.00;98413.66;5063124;28;19916;-67
2023/02/13 00:09:18;;;;;;;;;;;;;;;1.06;100.00;98415.78;5058652;28;20007;-67
2023/02/13 00:11:43;;;;;;;;;;;;;;;1.05;100.00;98399.88;5062899;28;19916;-67
2023/02/13 00:14:09;;;;;;;;;;;;;;;0.93;100.00;98403.56;5039578;28;19969;-68
2023/02/13 00:16:34;;;;;;;;;;;;;;;0.84;100.00;98409.72;5045518;28;19923;-67
2023/02/13 00:19:00;;;;;;;;;;;;;;;0.76;100.00;98403.75;5062423;28;20373;-68
2023/02/13 00:21:25;;;;;;;;;;;;;;;0.79;100.00;98407.00;5056666;28;19921;-68
2023/02/13 00:23:50;;;;;;;;;;;;;;;0.77;100.00;98404.56;5062832;28;19928;-68
2023/02/13 00:26:16;;;;;;;;;;;;;;;0.69;100.00;98403.16;5058143;28;20421;-68
2023/02/13 00:28:42;;;;;;;;;;;;;;;0.56;100.00;98409.03;5062731;28;20450;-68
2023/02/13 00:31:09;;;;;;;;;;;;;;;0.41;100.00;98407.00;5068008;28;19916;-67
2023/02/13 00:33:34;;;;;;;;;;;;;;;0.26;100.00;98410.41;5051641;28;19924;-68
2023/02/13 00:36:02;;;;;;;;;;;;;;;0.20;100.00;98416.84;5066431;28;19921;-67
2023/02/13 00:38:31;;;;;;;;;;;;;;;0.13;100.00;98408.16;5063767;28;19917;-68
2023/02/13 00:40:56;;;;;;;;;;;;;;;0.12;100.00;98411.91;5064427;28;20027;-67
2023/02/13 00:43:22;;;;;;;;;;;;;;;0.16;100.00;98413.00;5057150;28;20023;-67
2023/02/13 00:45:47;;;;;;;;;;;;;;;0.26;100.00;98415.00;5061808;28;20471;-67
2023/02/13 00:48:12;;;;;;;;;;;;;;;0.30;100.00;98422.28;5057552;28;19986;-67
2023/02/13 00:50:37;;;;;;;;;;;;;;;0.22;100.00;98414.69;5062604;28;20281;-68
2023/02/13 00:53:03;;;;;;;;;;;;;;;0.30;100.00;98422.28;5057781;28;19920;-67
2023/02/13 00:55:28;;;;;;;;;;;;;;;0.25;100.00;98421.44;5042272;28;20323;-68
2023/02/13 00:57:53;;;;;;;;;;;;;;;0.21;100.00;98415.75;5061950;28;20615;-68
2023/02/13 01:00:19;;;;;;;;;;;;;;;0.13;100.00;98417.03;5057049;28;19923;-68
2023/02/13 01:02:44;;;;;;;;;;;;;;;0.05;100.00;98417.50;5061919;28;20420;-68
2023/02/13 01:05:09;;;;;;;;;;;;;;;0.05;100.00;98416.69;5057861;28;19916;-67
2023/02/13 01:07:34;;;;;;;;;;;;;;;-0.08;100.00;98426.00;5061550;28;19916;-68
2023/02/13 01:10:00;;;;;;;;;;;;;;;-0.02;100.00;98422.28;5062230;28;19969;-67
2023/02/13 01:12:25;;;;;;;;;;;;;;;-0.08;100.00;98428.72;5058308;28;19931;-68
2023/02/13 01:14:51;;;;;;;;;;;;;;;-0.06;100.00;98435.44;5061771;28;20015;-68
2023/02/13 01:17:16;;;;;;;;;;;;;;;0.07;100.00;98428.84;5039029;28;19928;-67
2023/02/13 01:19:41;;;;;;;;;;;;;;;0.10;100.00;98439.09;5061312;28;19917;-68
2023/02/13 01:22:07;;;;;;;;;;;;;;;0.16;100.00;98434.56;5057699;28;20023;-67
2023/02/13 01:24:32;;;;;;;;;;;;;;;0.15;100.00;98427.56;5059748;28;19923;-67
2023/02/13 01:26:58;;;;;;;;;;;;;;;0.25;100.00;98424.13;5061684;28;19928;-67
2023/02/13 01:29:23;;;;;;;;;;;;;;;0.23;100.00;98437.06;5056934;28;20136;-67
2023/02/13 01:31:48;;;;;;;;;;;;;;;0.16;100.00;98438.09;5065129;28;19960;-68
2023/02/13 01:34:14;;;;;;;;;;;;;;;0.23;100.00;98443.25;5058669;28;19962;-67
2023/02/13 01:36:39;;;;;;;;;;;;;;;0.28;100.00;98439.81;5061387;28;19916;-67
2023/02/13 01:39:04;;;;;;;;;;;;;;;0.38;100.00;98439.91;5056437;28;19917;-67
2023/02/13 01:41:30;;;;;;;;;;;;;;;0.44;100.00;98438.84;5061767;28;19920;-67
2023/02/13 01:43:56;;;;;;;;;;;;;;;0.34;100.00;98431.50;5061782;28;19924;-67
2023/02/13 01:46:27;;;;;;;;;;;;;;;0.41;100.00;98425.88;5057210;28;20244;-67
2023/02/13 01:48:54;;;;;;;;;;;;;;;0.59;100.00;98427.38;5061593;28;19920;-67
2023/02/13 01:51:23;;;;;;;;;;;;;;;0.74;100.00;98434.75;5054059;28;19916;-68
2023/02/13 01:53:52;;;;;;;;;;;;;;;0.88;100.00;98441.31;5061183;28;19921;-68
2023/02/13 01:56:31;;;;;;;;;;;;;;;0.97;100.00;98436.22;5056643;28;19920;-67
2023/02/13 01:59:00;;;;;;;;;;;;;;;0.99;100.00;98435.97;5072421;28;19920;-67
2023/02/13 02:01:25;;;;;;;;;;;;;;;1.04;100.00;98449.50;5065103;28;19920;-67
2023/02/13 02:03:54;;;;;;;;;;;;;;;0.95;100.00;98444.59;5078771;28;19927;-68
2023/02/13 02:06:25;;;;;;;;;;;;;;;1.07;100.00;98448.97;5061657;28;19916;-68
2023/02/13 02:08:52;;;;;;;;;;;;;;;1.08;100.00;98446.03;5061552;28;19917;-67
2023/02/13 02:11:21;;;;;;;;;;;;;;;1.15;100.00;98448.47;5056416;28;19917;-67
2023/02/13 02:13:47;;;;;;;;;;;;;;;1.14;100.00;98449.56;5061454;28;19963;-67
2023/02/13 02:16:12;;;;;;;;;;;;;;;1.24;100.00;98454.19;5066104;28;19920;-68
2023/02/13 02:18:37;;;;;;;;;;;;;;;1.19;100.00;98457.69;5061023;28;19923;-67
2023/02/13 02:21:06;;;;;;;;;;;;;;;1.19;100.00;98462.25;5058905;28;19920;-66
2023/02/13 02:23:47;;;;;;;;;;;;;;;1.11;100.00;98460.88;5062306;28;20351;-67
2023/02/13 02:26:36;;;;;;;;;;;;;;;1.01;100.00;98464.34;5069016;28;19959;-69
2023/02/13 02:29:14;;;;;;;;;;;;;;;1.04;100.00;98462.97;5074380;28;19924;-68
2023/02/13 02:31:48;;;;;;;;;;;;;;;1.16;100.00;98458.19;5072549;28;20737;-69
2023/02/13 02:34:13;;;;;;;;;;;;;;;1.12;100.00;98465.19;5055729;28;20377;-68
2023/02/13 02:36:38;;;;;;;;;;;;;;;1.06;100.00;98456.28;5060831;28;19920;-68
2023/02/13 02:39:10;;;;;;;;;;;;;;;1.07;100.00;98459.78;5059921;28;19930;-65
2023/02/13 02:41:41;;;;;;;;;;;;;;;1.13;100.00;98456.84;5064587;28;20438;-68
2023/02/13 02:44:11;;;;;;;;;;;;;;;1.08;100.00;98464.09;5058620;28;20455;-68
2023/02/13 02:49:57;;;;;;;;;;;;;;;1.00;100.00;98470.00;5065160;28;20504;-67
2023/02/13 02:52:19;;;;;;;;;;;;;;;0.94;100.00;98463.75;5059221;28;20065;-66
2023/02/13 02:55:06;;;;;;;;;;;;;;;1.06;100.00;98469.75;5064162;28;19924;-67
2023/02/13 03:14:02;;;;;;;;;;;;;;;1.53;100.00;98486.97;5064292;28;19916;-67
2023/02/13 03:22:18;;;;;;;;;;;;;;;1.34;100.00;98490.13;5063869;28;20400;-67
2023/02/13 03:25:02;;;;;;;;;;;;;;;1.46;100.00;98489.09;5063894;28;20401;-67
2023/02/13 03:30:31;;;;;;;;;;;;;;;1.24;100.00;98494.66;5063769;28;19916;-67
2023/02/13 03:32:59;;;;;;;;;;;;;;;1.11;100.00;98496.75;5064928;28;20019;-67
2023/02/13 03:38:28;;;;;;;;;;;;;;;1.11;100.00;98495.94;5059578;28;19916;-67
2023/02/13 03:41:18;;;;;;;;;;;;;;;1.08;100.00;98494.59;5065643;28;20389;-68
2023/02/13 03:43:49;;;;;;;;;;;;;;;0.97;100.00;98497.47;5065862;28;19925;-67
2023/02/13 03:46:15;;;;;;;;;;;;;;;0.94;100.00;98496.13;5058857;28;19917;-68
2023/02/13 03:51:28;;;;;;;;;;;;;;;0.94;100.00;98494.22;5039772;28;19916;-68
2023/02/13 03:54:00;;;;;;;;;;;;;;;0.90;100.00;98497.69;5062814;28;19925;-68
2023/02/13 03:59:33;;;;;;;;;;;;;;;0.89;100.00;98502.28;5058994;28;20293;-68
2023/02/13 04:02:02;;;;;;;;;;;;;;;0.91;100.00;98502.84;5061918;28;20008;-67
2023/02/13 04:04:33;;;;;;;;;;;;;;;0.84;100.00;98487.94;5042930;28;20427;-68
2023/02/13 04:07:02;;;;;;;;;;;;;;;0.85;100.00;98497.69;5063056;28;20490;-67
2023/02/13 04:09:29;;;;;;;;;;;;;;;0.84;100.00;98504.94;5058720;28;19932;-67
2023/02/13 04:12:04;;;;;;;;;;;;;;;0.78;100.00;98500.59;5063229;28;20407;-68
2023/02/13 04:14:42;;;;;;;;;;;;;;;0.83;100.00;98510.59;5061909;28;20395;-69
2023/02/13 04:17:11;;;;;;;;;;;;;;;0.69;100.00;98507.53;5055448;28;19917;-69
2023/02/13 04:19:36;;;;;;;;;;;;;;;0.66;100.00;98500.75;5063546;28;19917;-68
2023/02/13 04:22:02;;;;;;;;;;;;;;;0.65;100.00;98507.25;5061127;28;19966;-67
2023/02/13 04:24:27;;;;;;;;;;;;;;;0.66;100.00;98508.06;5058677;28;20390;-69
2023/02/13 04:26:53;;;;;;;;;;;;;;;0.69;100.00;98508.34;5063070;28;19923;-68
2023/02/13 04:29:20;;;;;;;;;;;;;;;0.68;100.00;98505.91;5041398;28;19916;-68
2023/02/13 04:31:45;;;;;;;;;;;;;;;0.66;100.00;98513.44;5069123;28;19931;-68
2023/02/13 04:34:15;;;;;;;;;;;;;;;0.63;100.00;98506.69;5062624;28;19928;-68
2023/02/13 04:36:40;;;;;;;;;;;;;;;0.65;100.00;98509.09;5066825;28;20010;-68
2023/02/13 04:39:05;;;;;;;;;;;;;;;0.61;100.00;98511.50;5059778;28;20017;-65
2023/02/13 04:41:31;;;;;;;;;;;;;;;0.59;100.00;98510.16;5061969;28;20277;-68
2023/02/13 04:43:56;;;;;;;;;;;;;;;0.55;100.00;98507.16;5062303;28;20007;-68
2023/02/13 04:46:21;;;;;;;;;;;;;;;0.57;100.00;98516.59;5057976;28;20431;-68
2023/02/13 04:48:47;;;;;;;;;;;;;;;0.55;100.00;98518.75;5061123;28;20377;-68
2023/02/13 04:51:12;;;;;;;;;;;;;;;0.58;100.00;98517.44;5056397;28;20018;-68
2023/02/13 04:53:37;;;;;;;;;;;;;;;0.56;100.00;98511.50;5061962;28;19920;-67
2023/02/13 04:56:03;;;;;;;;;;;;;;;0.52;100.00;98515.75;5059633;28;20068;-68
2023/02/13 04:58:29;;;;;;;;;;;;;;;0.52;100.00;98516.59;5060978;28;19916;-68
2023/02/13 05:00:54;;;;;;;;;;;;;;;0.47;100.00;98510.31;5061449;28;19916;-68
2023/02/13 05:03:19;;;;;;;;;;;;;;;0.48;100.00;98510.06;5056893;28;20345;-68
2023/02/13 05:05:44;;;;;;;;;;;;;;;0.47;100.00;98511.13;5061147;28;19916;-67
2023/02/13 05:08:10;;;;;;;;;;;;;;;0.44;100.00;98514.34;5037377;28;19917;-67
2023/02/13 05:10:35;;;;;;;;;;;;;;;0.43;100.00;98509.19;5043798;28;20281;-67
2023/02/13 05:13:01;;;;;;;;;;;;;;;0.38;100.00;98515.38;5061694;28;20015;-66
2023/02/13 05:15:26;;;;;;;;;;;;;;;0.40;100.00;98517.78;5056800;28;19920;-67
2023/02/13 05:17:51;;;;;;;;;;;;;;;0.35;100.00;98515.88;5062270;28;19920;-68
2023/02/13 05:20:17;;;;;;;;;;;;;;;0.33;100.00;98516.13;5058032;28;19963;-69
2023/02/13 05:25:27;;;;;;;;;;;;;;;0.33;100.00;98521.53;5058789;28;19926;-68
2023/02/13 05:27:52;;;;;;;;;;;;;;;0.34;100.00;98516.94;5061525;28;20019;-69
2023/02/13 05:30:18;;;;;;;;;;;;;;;0.31;100.00;98520.16;5056588;28;19920;-68
2023/02/13 05:32:43;;;;;;;;;;;;;;;0.32;100.00;98517.19;5069256;28;19983;-68
2023/02/13 05:35:08;;;;;;;;;;;;;;;0.31;100.00;98528.25;5073340;28;19939;-68
2023/02/13 05:37:34;;;;;;;;;;;;;;;0.29;100.00;98527.66;5075459;28;19977;-68
2023/02/13 05:39:59;;;;;;;;;;;;;;;0.32;100.00;98522.56;5064511;28;20009;-67
2023/02/13 05:42:24;;;;;;;;;;;;;;;0.29;100.00;98524.97;5056485;28;19921;-67
2023/02/13 05:44:50;;;;;;;;;;;;;;;0.27;100.00;98525.25;5061977;28;20397;-67
2023/02/13 05:47:15;;;;;;;;;;;;;;;0.30;100.00;98530.09;5057032;28;20364;-68
2023/02/13 05:49:40;;;;;;;;;;;;;;;0.30;100.00;98532.81;5062503;28;20396;-67
2023/02/13 05:52:06;;;;;;;;;;;;;;;0.27;100.00;98530.63;5055991;28;19921;-67
2023/02/13 05:54:31;;;;;;;;;;;;;;;0.25;100.00;98523.84;5061845;28;19939;-68
2023/02/13 05:56:56;;;;;;;;;;;;;;;0.24;100.00;98516.84;5027794;28;19916;-68
2023/02/13 05:59:21;;;;;;;;;;;;;;;0.22;100.00;98522.50;5056595;28;20767;-66
2023/02/13 06:01:47;;;;;;;;;;;;;;;0.22;100.00;98518.97;5061143;28;19924;-68
2023/02/13 06:04:12;;;;;;;;;;;;;;;0.21;100.00;98520.84;5055179;28;20296;-68
2023/02/13 06:06:37;;;;;;;;;;;;;;;0.18;100.00;98521.34;5061474;28;19916;-68
2023/02/13 06:09:03;;;;;;;;;;;;;;;0.17;100.00;98517.84;5058850;28;20403;-67
2023/02/13 06:11:28;;;;;;;;;;;;;;;0.20;100.00;98524.63;5059922;28;20427;-68
2023/02/13 06:13:54;;;;;;;;;;;;;;;0.31;100.00;98522.84;5064035;28;19971;-67
2023/02/13 06:16:19;;;;;;;;;;;;;;;0.21;100.00;98536.22;5060701;28;19954;-67
2023/02/13 06:18:44;;;;;;;;;;;;;;;0.22;100.00;98540.53;5066273;28;19923;-68
2023/02/13 06:21:09;;;;;;;;;;;;;;;0.22;100.00;98535.97;5061271;28;19923;-68
2023/02/13 06:23:35;;;;;;;;;;;;;;;0.20;100.00;98535.41;5065025;28;19924;-67
2023/02/13 06:26:01;;;;;;;;;;;;;;;0.19;100.00;98529.19;5065268;28;20015;-67
2023/02/13 06:28:26;;;;;;;;;;;;;;;0.19;100.00;98531.06;5044301;28;19931;-67
2023/02/13 06:30:51;;;;;;;;;;;;;;;0.17;100.00;98538.59;5065141;28;20007;-67
2023/02/13 06:33:16;;;;;;;;;;;;;;;0.30;100.00;98537.38;5060687;28;19939;-67
2023/02/13 06:35:42;;;;;;;;;;;;;;;0.30;100.00;98537.38;5064912;28;19916;-67
2023/02/13 06:38:07;;;;;;;;;;;;;;;0.21;100.00;98545.09;5059366;28;19924;-67
2023/02/13 06:40:32;;;;;;;;;;;;;;;0.29;100.00;98539.28;5047964;28;19916;-67
2023/02/13 06:42:57;;;;;;;;;;;;;;;0.35;100.00;98542.84;5065141;28;20400;-69
2023/02/13 06:45:23;;;;;;;;;;;;;;;0.35;100.00;98550.91;5058961;28;20075;-69
2023/02/13 06:47:49;;;;;;;;;;;;;;;0.45;100.00;98550.19;5063999;28;20274;-69
2023/02/13 06:50:15;;;;;;;;;;;;;;;0.35;100.00;98554.41;5058736;28;19951;-68
2023/02/13 06:52:47;;;;;;;;;;;;;;;0.50;100.00;98552.94;5046356;28;19928;-68
2023/02/13 06:55:13;;;;;;;;;;;;;;;0.31;100.00;98561.41;5040765;28;19936;-68
2023/02/13 06:57:38;;;;;;;;;;;;;;;0.22;100.00;98562.09;5046078;28;20278;-68
2023/02/13 07:00:04;;;;;;;;;;;;;;;0.19;100.00;98563.41;5060168;28;20381;-69
2023/02/13 07:02:32;;;;;;;;;;;;;;;0.16;100.00;98559.34;5065169;28;19921;-68
2023/02/13 07:04:58;;;;;;;;;;;;;;;0.17;100.00;98563.66;5065583;28;19920;-68
2023/02/13 07:07:23;;;;;;;;;;;;;;;0.19;100.00;98566.13;5060019;28;20373;-68
2023/02/13 07:09:48;;;;;;;;;;;;;;;0.19;100.00;98561.53;5054305;28;19942;-68
2023/02/13 07:12:14;;;;;;;;;;;;;;;0.17;100.00;98560.16;5075976;28;19923;-69
2023/02/13 07:14:39;;;;;;;;;;;;;;;0.19;100.00;98560.72;5079062;28;19916;-68
2023/02/13 07:17:04;;;;;;;;;;;;;;;0.17;100.00;98568.25;5069946;28;19920;-69
2023/02/13 07:19:32;;;;;;;;;;;;;;;0.16;100.00;98564.75;5063760;28;19920;-68
2023/02/13 07:22:01;;;;;;;;;;;;;;;0.16;100.00;98567.44;5029726;28;19921;-67
2023/02/13 07:24:26;;;;;;;;;;;;;;;0.18;100.00;98573.38;5058382;28;19923;-68
2023/02/13 07:26:51;;;;;;;;;;;;;;;0.14;100.00;98574.94;5064350;28;19962;-68
2023/02/13 07:29:16;;;;;;;;;;;;;;;0.13;100.00;98581.41;5058888;28;20349;-67
2023/02/13 07:31:42;;;;;;;;;;;;;;;0.22;100.00;98581.78;5063347;28;19921;-68
2023/02/13 07:34:07;;;;;;;;;;;;;;;0.18;100.00;98577.94;5058810;28;19916;-68
2023/02/13 07:36:33;;;;;;;;;;;;;;;0.27;100.00;98581.84;5044831;28;19956;-68
2023/02/13 07:38:58;;;;;;;;;;;;;;;0.15;100.00;98581.16;5064565;28;19916;-68
2023/02/13 07:41:26;;;;;;;;;;;;;;;0.18;100.00;98584.16;5058660;28;20444;-68
2023/02/13 07:43:52;;;;;;;;;;;;;;;0.20;100.00;98575.84;5063916;28;20285;-69
2023/02/13 07:46:17;;;;;;;;;;;;;;;0.23;100.00;98582.59;5050182;28;19923;-68
2023/02/13 07:48:43;;;;;;;;;;;;;;;0.26;100.00;98584.78;5063533;28;19916;-68
2023/02/13 07:51:08;;;;;;;;;;;;;;;0.23;100.00;98588.78;5061504;28;19917;-69
2023/02/13 07:53:34;;;;;;;;;;;;;;;0.32;100.00;98595.34;5067035;28;19924;-68
2023/02/13 07:56:03;;;;;;;;;;;;;;;0.32;100.00;98589.97;5065944;28;19947;-68
2023/02/13 07:58:28;;;;;;;;;;;;;;;0.24;100.00;98589.63;5061950;28;20329;-68
2023/02/13 08:00:54;;;;;;;;;;;;;;;0.29;100.00;98589.66;5062969;28;19922;-68
2023/02/13 08:03:19;;;;;;;;;;;;;;;0.27;100.00;98592.63;5058795;28;19920;-67
2023/02/13 08:05:46;;;;;;;;;;;;;;;0.39;100.00;98589.75;5047075;28;19917;-67
2023/02/13 08:08:11;;;;;;;;;;;;;;;0.37;100.00;98592.72;5060805;28;19925;-68
2023/02/13 08:13:22;;;;;;;;;;;;;;;0.34;100.00;98601.31;5059773;28;20458;-68
2023/02/13 08:15:48;;;;;;;;;;;;;;;0.37;100.00;98603.50;5064555;28;20393;-68
2023/02/13 08:18:13;;;;;;;;;;;;;;;0.58;100.00;98595.63;5044100;28;19923;-69
2023/02/13 08:20:38;;;;;;;;;;;;;;;0.46;100.00;98606.56;5047932;28;19916;-68
2023/02/13 08:23:04;;;;;;;;;;;;;;;0.50;100.00;98604.16;5062055;28;19920;-67
2023/02/13 08:25:30;;;;;;;;;;;;;;;0.55;100.00;98607.72;5064920;28;19924;-68
2023/02/13 08:27:57;;;;;;;;;;;;;;;0.62;100.00;98606.72;5030568;28;19916;-68
2023/02/13 08:30:22;;;;;;;;;;;;;;;0.68;100.00;98609.19;5059744;28;20392;-68
2023/02/13 08:32:48;;;;;;;;;;;;;;;0.60;100.00;98604.28;5064703;28;20027;-68
2023/02/13 08:35:13;;;;;;;;;;;;;;;0.62;100.00;98591.34;5059409;28;19925;-68
2023/02/13 08:37:38;;;;;;;;;;;;;;;0.56;100.00;98603.16;5063923;28;19916;-69
2023/02/13 08:40:04;;;;;;;;;;;;;;;0.59;100.00;98605.34;5061039;28;20011;-69
2023/02/13 08:42:29;;;;;;;;;;;;;;;0.60;100.00;98604.28;5029448;28;19927;-67
2023/02/13 08:44:54;;;;;;;;;;;;;;;0.63;100.00;98605.63;5064651;28;19916;-69
2023/02/13 08:47:20;;;;;;;;;;;;;;;0.62;100.00;98609.41;5058964;28;19916;-69
2023/02/13 08:49:45;;;;;;;;;;;;;;;0.75;100.00;98604.41;5064216;28;19916;-69
2023/02/13 08:52:10;;;;;;;;;;;;;;;0.68;100.00;98606.50;5041673;28;19955;-68
2023/02/13 08:54:36;;;;;;;;;;;;;;;0.80;100.00;98608.25;5046783;28;19978;-68
2023/02/13 08:57:01;;;;;;;;;;;;;;;0.72;100.00;98607.63;5029526;28;19920;-67
2023/02/13 08:59:26;;;;;;;;;;;;;;;0.69;100.00;98605.44;5059791;28;19995;-68
2023/02/13 09:01:52;;;;;;;;;;;;;;;0.67;100.00;98598.69;5064688;28;20405;-68
2023/02/13 09:04:17;;;;;;;;;;;;;;;0.73;100.00;98600.34;5060763;28;19923;-67
2023/02/13 09:06:42;;;;;;;;;;;;;;;0.89;100.00;98604.81;5064557;28;20023;-68
2023/02/13 09:09:08;;;;;;;;;;;;;;;0.79;100.00;98604.72;5059774;28;19923;-69
2023/02/13 09:11:33;;;;;;;;;;;;;;;0.82;100.00;98606.09;5063838;28;19920;-69
2023/02/13 09:13:58;;;;;;;;;;;;;;;0.86;100.00;98599.91;5064744;28;19970;-68
2023/02/13 09:16:24;;;;;;;;;;;;;;;0.93;100.00;98597.81;5059027;28;20033;-68
2023/02/13 09:18:49;;;;;;;;;;;;;;;0.94;100.00;98602.16;5064460;28;20010;-68
2023/02/13 09:21:16;;;;;;;;;;;;;;;0.83;100.00;98599.63;5042021;28;19928;-68
2023/02/13 09:23:41;;;;;;;;;;;;;;;0.85;100.00;98601.00;5065051;28;19924;-68
2023/02/13 09:26:08;;;;;;;;;;;;;;;1.04;100.00;98598.72;5041346;28;20280;-69
2023/02/13 09:28:34;;;;;;;;;;;;;;;1.24;100.00;98599.94;5045782;28;19922;-68
2023/02/13 09:31:04;;;;;;;;;;;;;;;1.56;100.00;98607.19;5046033;28;19927;-69
2023/02/13 09:33:29;;;;;;;;;;;;;;;1.51;100.00;98608.78;5063072;28;19923;-68
2023/02/13 09:35:54;;;;;;;;;;;;;;;1.78;100.00;98613.25;5069041;28;19920;-69
2023/02/13 09:38:20;;;;;;;;;;;;;;;1.73;100.00;98607.84;5068636;28;19950;-69
2023/02/13 09:40:48;;;;;;;;;;;;;;;1.67;100.00;98606.16;5071614;28;19920;-68
2023/02/13 09:43:13;;;;;;;;;;;;;;;1.85;100.00;98608.41;5064842;28;20019;-68
2023/02/13 09:45:39;;;;;;;;;;;;;;;2.07;100.00;98607.44;5066621;28;19960;-69
2023/02/13 09:48:05;;;;;;;;;;;;;;;2.14;100.00;98608.00;5060148;28;19916;-69
2023/02/13 09:50:32;;;;;;;;;;;;;;;2.01;100.00;98608.50;5064175;28;19916;-68
2023/02/13 09:52:58;;;;;;;;;;;;;;;2.23;100.00;98603.72;5064326;28;19920;-69
2023/02/13 09:55:28;;;;;;;;;;;;;;;2.56;100.00;98604.34;5059010;28;20362;-69
2023/02/13 09:58:00;;;;;;;;;;;;;;;2.58;100.00;98604.09;5064396;28;19916;-69
2023/02/13 10:00:35;;;;;;;;;;;;;;;2.18;100.00;98602.88;5058948;28;19916;-68
2023/02/13 10:03:11;;;;;;;;;;;;;;;2.53;100.00;98604.88;5046319;28;19931;-69
2023/02/13 10:05:46;;;;;;;;;;;;;;;2.75;100.00;98599.22;5063895;28;19984;-69
2023/02/13 10:08:21;;;;;;;;;;;;;;;3.13;100.00;98610.59;5041654;28;19920;-67
2023/02/13 10:11:02;;;;;;;;;;;;;;;3.33;100.00;98611.69;5063505;28;19916;-66
2023/02/13 10:13:47;;;;;;;;;;;;;;;2.76;100.00;98610.88;5051591;28;19921;-69
2023/02/13 10:16:21;;;;;;;;;;;;;;;2.96;100.00;98605.47;5072656;28;19924;-67
2023/02/13 10:18:52;;;;;;;;;;;;;;;3.54;100.00;98607.06;5046653;28;19916;-67
2023/02/13 10:21:23;;;;;;;;;;;;;;;3.75;100.00;98611.34;5038231;28;19920;-69
2023/02/13 10:24:06;;;;;;;;;;;;;;;4.01;100.00;98603.13;5041886;28;19924;-69
2023/02/13 10:26:42;;;;;;;;;;;;;;;3.36;100.00;98609.25;5028964;28;20305;-69
2023/02/13 10:32:13;;;;;;;;;;;;;;;3.22;100.00;98600.88;5040786;28;19926;-69
2023/02/13 10:34:45;;;;;;;;;;;;;;;3.12;100.00;98595.47;5064275;28;20361;-69
2023/02/13 10:37:15;;;;;;;;;;;;;;;3.21;100.00;98593.03;5059010;28;19916;-69
2023/02/13 10:39:43;;;;;;;;;;;;;;;3.66;100.00;98604.88;5062737;28;19920;-69
2023/02/13 10:42:18;;;;;;;;;;;;;;;3.87;100.00;98597.50;5038750;28;19928;-69
2023/02/13 10:44:52;;;;;;;;;;;;;;;3.66;100.00;98594.03;5069811;28;19947;-69
2023/02/13 10:47:17;;;;;;;;;;;;;;;3.75;100.00;98592.38;5063660;28;19927;-68
2023/02/13 10:49:55;;;;;;;;;;;;;;;3.83;100.00;98591.84;5057666;28;19916;-69
2023/02/13 10:52:20;;;;;;;;;;;;;;;4.14;100.00;98599.84;5051521;28;19928;-68
2023/02/13 10:55:07;;;;;;;;;;;;;;;4.00;100.00;98587.97;5063405;28;19916;-68
2023/02/13 10:57:43;;;;;;;;;;;;;;;4.37;100.00;98581.28;5038936;28;19917;-70
2023/02/13 11:00:17;;;;;;;;;;;;;;;4.43;100.00;98576.63;5077312;28;19924;-67
2023/02/13 11:02:42;;;;;;;;;;;;;;;4.53;100.00;98573.88;5065690;28;19921;-68
2023/02/13 11:05:19;;;;;;;;;;;;;;;4.48;100.00;98571.19;5061083;28;19916;-67
2023/02/13 11:07:48;;;;;;;;;;;;;;;4.70;100.00;98576.19;5065920;28;19970;-69
2023/02/13 11:10:21;;;;;;;;;;;;;;;4.79;100.00;98580.75;5062718;28;19942;-69
2023/02/13 11:12:47;;;;;;;;;;;;;;;4.80;100.00;98570.69;5047656;28;19923;-69
2023/02/13 11:15:22;;;;;;;;;;;;;;;4.95;100.00;98567.03;5060887;28;19916;-69
2023/02/13 11:17:48;;;;;;;;;;;;;;;5.01;100.00;98570.53;5048641;28;19923;-69
2023/02/13 11:20:29;;;;;;;;;;;;;;;5.08;100.00;98565.59;5061079;28;19917;-69
2023/02/13 11:22:54;;;;;;;;;;;;;;;5.02;100.00;98569.44;5047873;28;20319;-69
2023/02/13 11:25:30;;;;;;;;;;;;;;;5.04;100.00;98568.06;5040150;28;19923;-68
2023/02/13 11:28:15;;;;;;;;;;;;;;;5.05;100.00;98561.53;5062755;28;19916;-69
2023/02/13 11:30:40;;;;;;;;;;;;;;;5.24;100.00;98571.69;5047921;28;20352;-68
2023/02/13 11:33:19;;;;;;;;;;;;;;;5.27;100.00;98562.97;5062099;28;19920;-69
2023/02/13 11:35:45;;;;;;;;;;;;;;;5.13;100.00;98566.38;5066616;28;19986;-68
2023/02/13 11:38:14;;;;;;;;;;;;;;;5.16;100.00;98560.34;5044285;28;19924;-68
2023/02/13 11:40:40;;;;;;;;;;;;;;;4.39;100.00;98562.81;5067116;28;19916;-68
2023/02/13 11:43:06;;;;;;;;;;;;;;;4.15;100.00;98565.38;5059962;28;19921;-67
2023/02/13 11:45:32;;;;;;;;;;;;;;;4.53;100.00;98558.38;5047291;28;20011;-69
2023/02/13 11:47:57;;;;;;;;;;;;;;;4.75;100.00;98559.88;5066101;28;20035;-68
2023/02/13 11:50:25;;;;;;;;;;;;;;;4.33;100.00;98551.19;5061619;28;20358;-70
2023/02/13 11:53:02;;;;;;;;;;;;;;;4.73;100.00;98554.72;5065608;28;20020;-70
2023/02/13 11:55:37;;;;;;;;;;;;;;;5.24;100.00;98550.78;5056160;28;19920;-68
2023/02/13 11:58:11;;;;;;;;;;;;;;;5.43;100.00;98550.84;5055526;28;19924;-70
2023/02/13 12:00:41;;;;;;;;;;;;;;;5.46;100.00;98547.56;5080269;28;19988;-69
2023/02/13 12:03:19;;;;;;;;;;;;;;;5.49;100.00;98548.88;5075359;28;19927;-70
2023/02/13 12:05:58;;;;;;;;;;;;;;;5.55;100.00;98553.19;5072227;28;19928;-70
2023/02/13 12:08:23;;;;;;;;;;;;;;;5.63;100.00;98546.31;5046619;28;20058;-69
2023/02/13 12:10:49;;;;;;;;;;;;;;;5.45;99.51;98551.38;5068828;28;20227;-69
2023/02/13 12:13:19;;;;;;;;;;;;;;;4.49;100.00;98551.09;5046661;28;19923;-69
2023/02/13 12:15:46;;;;;;;;;;;;;;;4.44;100.00;98543.78;5068409;28;19956;-69
2023/02/13 12:18:26;;;;;;;;;;;;;;;4.93;100.00;98550.22;5046151;28;19924;-69
2023/02/13 12:21:10;;;;;;;;;;;;;;;5.25;100.00;98544.22;5067638;28;20547;-69
2023/02/13 12:23:54;;;;;;;;;;;;;;;5.49;100.00;98548.88;5064415;28;20270;-68
2023/02/13 12:26:39;;;;;;;;;;;;;;;5.58;100.00;98538.19;5051522;28;20015;-68
2023/02/13 12:29:04;;;;;;;;;;;;;;;4.31;100.00;98539.00;5058908;28;20019;-68
2023/02/13 12:31:47;;;;;;;;;;;;;;;4.46;100.00;98532.66;5064422;28;20145;-70
2023/02/13 12:34:22;;;;;;;;;;;;;;;4.35;100.00;98521.06;5060033;28;19974;-68
2023/02/13 12:36:47;;;;;;;;;;;;;;;4.94;100.00;98520.06;5064988;28;19962;-68
2023/02/13 12:39:23;;;;;;;;;;;;;;;5.39;100.00;98525.34;5059753;28;19917;-69
2023/02/13 12:42:07;;;;;;;;;;;;;;;5.65;100.00;98516.91;5065532;28;19920;-68
2023/02/13 12:44:44;;;;;;;;;;;;;;;5.73;98.73;98522.53;5058837;28;19921;-68
2023/02/13 12:47:10;;;;;;;;;;;;;;;5.52;98.49;98527.38;5058816;28;19921;-68
2023/02/13 12:49:58;;;;;;;;;;;;;;;4.90;100.00;98526.38;5063919;28;20339;-69
2023/02/13 12:52:37;;;;;;;;;;;;;;;5.35;100.00;98519.69;5014409;28;20342;-68
2023/02/13 12:55:18;;;;;;;;;;;;;;;5.63;100.00;98516.41;5061890;28;19964;-69
2023/02/13 12:57:56;;;;;;;;;;;;;;;5.56;99.26;98508.59;5046202;28;20003;-68
2023/02/13 13:00:21;;;;;;;;;;;;;;;5.41;99.41;98509.56;5060548;28;20554;-68
2023/02/13 13:02:58;;;;;;;;;;;;;;;5.64;99.35;98509.88;5062902;28;19927;-68
2023/02/13 13:05:29;;;;;;;;;;;;;;;5.64;98.30;98504.44;5051445;28;20434;-68
2023/02/13 13:08:00;;;;;;;;;;;;;;;5.59;98.51;98504.50;5064544;28;19916;-69
2023/02/13 13:10:31;;;;;;;;;;;;;;;4.43;100.00;98506.91;5059556;28;19925;-69
2023/02/13 13:13:09;;;;;;;;;;;;;;;3.99;100.00;98508.50;5063799;28;19920;-68
2023/02/13 13:15:50;;;;;;;;;;;;;;;4.10;100.00;98508.47;5044332;28;20011;-68
2023/02/13 13:18:23;;;;;;;;;;;;;;;4.75;100.00;98511.00;5059634;28;20333;-69
2023/02/13 13:20:57;;;;;;;;;;;;;;;5.21;100.00;98509.78;5046204;28;20400;-68
2023/02/13 13:23:36;;;;;;;;;;;;;;;5.46;100.00;98503.28;5041470;28;20204;-68
2023/02/13 13:26:01;;;;;;;;;;;;;;;5.68;100.00;98505.47;5046634;28;20349;-68
2023/02/13 13:28:36;;;;;;;;;;;;;;;5.71;97.96;98505.69;5041313;28;19920;-69
2023/02/13 13:31:02;;;;;;;;;;;;;;;5.74;98.69;98507.00;5045495;28;19920;-68
2023/02/13 13:33:27;;;;;;;;;;;;;;;5.19;97.18;98503.84;5041481;28;19920;-68
2023/02/13 13:35:55;;;;;;;;;;;;;;;4.83;100.00;98504.16;5063593;28;19939;-69
2023/02/13 13:38:29;;;;;;;;;;;;;;;5.12;100.00;98506.88;5060025;28;19924;-68
2023/02/13 13:40:58;;;;;;;;;;;;;;;4.35;100.00;98505.59;5063524;28;19977;-68